sensor_id;sensor_type;location;lat;lon;timestamp;pressure;altitude;pressure_sealevel;temperature;humidity
9281;BME280;4679;47.966;7.958;2023-04-02T06:21:27;96675.69;;;7.22;81.38
9281;BME280;4679;47.966;7.958;2023-04-02T06:23:31;96676.84;;;7.26;81.45
9281;BME280;4679;47.966;7.958;2023-04-02T06:25:39;96675.00;;;7.26;81.50
9281;BME280;4679;47.966;7.958;2023-04-02T06:27:44;96671.78;;;7.24;81.57
9281;BME280;4679;47.966;7.958;2023-04-02T06:29:49;96682.34;;;7.24;81.44
9281;BME280;4679;47.966;7.958;2023-04-02T06:31:56;96687.97;;;7.28;81.33
9281;BME280;4679;47.966;7.958;2023-04-02T06:34:05;96684.63;;;7.32;81.05
9281;BME280;4679;47.966;7.958;2023-04-02T06:36:11;96692.28;;;7.34;81.95
9281;BME280;4679;47.966;7.958;2023-04-02T06:38:16;96690.22;;;7.36;81.76
9281;BME280;4679;47.966;7.958;2023-04-02T06:40:32;96698.72;;;7.38;82.33
9281;BME280;4679;47.966;7.958;2023-04-02T06:42:38;96700.31;;;7.39;81.82
9281;BME280;4679;47.966;7.958;2023-04-02T06:44:41;96703.31;;;7.43;82.16
9281;BME280;4679;47.966;7.958;2023-04-02T06:46:46;96708.13;;;7.46;82.13
9281;BME280;4679;47.966;7.958;2023-04-02T06:48:51;96710.03;;;7.50;81.96
9281;BME280;4679;47.966;7.958;2023-04-02T06:51:01;96708.09;;;7.57;81.97
9281;BME280;4679;47.966;7.958;2023-04-02T06:53:13;96717.72;;;7.63;81.24
9281;BME280;4679;47.966;7.958;2023-04-02T06:55:29;96729.38;;;7.67;81.44
9281;BME280;4679;47.966;7.958;2023-04-02T06:57:32;96728.47;;;7.73;81.62
9281;BME280;4679;47.966;7.958;2023-04-02T06:59:35;96732.72;;;7.74;81.61
9281;BME280;4679;47.966;7.958;2023-04-02T07:01:40;96727.66;;;7.73;81.64
9281;BME280;4679;47.966;7.958;2023-04-02T07:03:42;96725.81;;;7.73;81.47
9281;BME280;4679;47.966;7.958;2023-04-02T07:05:44;96727.91;;;7.71;82.23
9281;BME280;4679;47.966;7.958;2023-04-02T07:07:45;96728.13;;;7.70;82.04
9281;BME280;4679;47.966;7.958;2023-04-02T07:09:47;96734.22;;;7.70;82.34
9281;BME280;4679;47.966;7.958;2023-04-02T07:11:50;96731.34;;;7.72;81.64
9281;BME280;4679;47.966;7.958;2023-04-02T07:13:52;96739.03;;;7.73;82.41
9281;BME280;4679;47.966;7.958;2023-04-02T07:15:54;96740.88;;;7.73;82.15
9281;BME280;4679;47.966;7.958;2023-04-02T07:17:56;96741.66;;;7.73;82.18
9281;BME280;4679;47.966;7.958;2023-04-02T07:19:58;96742.25;;;7.75;82.41
9281;BME280;4679;47.966;7.958;2023-04-02T07:22:00;96743.84;;;7.76;82.61
9281;BME280;4679;47.966;7.958;2023-04-02T07:24:01;96737.53;;;7.78;81.69
9281;BME280;4679;47.966;7.958;2023-04-02T07:26:04;96748.63;;;7.80;82.17
9281;BME280;4679;47.966;7.958;2023-04-02T07:28:07;96745.53;;;7.83;81.90
9281;BME280;4679;47.966;7.958;2023-04-02T07:30:09;96747.47;;;7.87;82.14
9281;BME280;4679;47.966;7.958;2023-04-02T07:32:12;96753.09;;;7.91;81.77
9281;BME280;4679;47.966;7.958;2023-04-02T07:34:13;96756.63;;;7.96;82.14
9281;BME280;4679;47.966;7.958;2023-04-02T07:36:17;96754.31;;;8.00;81.81
9281;BME280;4679;47.966;7.958;2023-04-02T07:38:19;96753.38;;;8.06;82.32
9281;BME280;4679;47.966;7.958;2023-04-02T07:40:21;96761.66;;;8.09;81.98
9281;BME280;4679;47.966;7.958;2023-04-02T07:42:23;96764.03;;;8.11;81.88
9281;BME280;4679;47.966;7.958;2023-04-02T07:44:27;96758.50;;;8.12;82.15
9281;BME280;4679;47.966;7.958;2023-04-02T07:46:29;96770.13;;;8.11;81.80
9281;BME280;4679;47.966;7.958;2023-04-02T07:48:30;96759.88;;;8.15;81.92
9281;BME280;4679;47.966;7.958;2023-04-02T07:50:32;96761.81;;;8.20;82.32
9281;BME280;4679;47.966;7.958;2023-04-02T07:52:38;96761.81;;;8.20;82.37
9281;BME280;4679;47.966;7.958;2023-04-02T07:54:39;96776.66;;;8.21;81.94
9281;BME280;4679;47.966;7.958;2023-04-02T07:56:41;96774.88;;;8.26;81.93
9281;BME280;4679;47.966;7.958;2023-04-02T07:58:43;96779.47;;;8.31;82.33
9281;BME280;4679;47.966;7.958;2023-04-02T08:00:46;96787.75;;;8.34;81.84
9281;BME280;4679;47.966;7.958;2023-04-02T08:02:47;96782.69;;;8.33;82.34
9281;BME280;4679;47.966;7.958;2023-04-02T08:04:49;96784.53;;;8.32;82.00
9281;BME280;4679;47.966;7.958;2023-04-02T08:06:51;96789.22;;;8.30;82.44
9281;BME280;4679;47.966;7.958;2023-04-02T08:08:53;96794.50;;;8.30;82.04
9281;BME280;4679;47.966;7.958;2023-04-02T08:10:55;96796.72;;;8.33;82.14
9281;BME280;4679;47.966;7.958;2023-04-02T08:12:56;96791.31;;;8.40;81.94
9281;BME280;4679;47.966;7.958;2023-04-02T08:14:58;96793.44;;;8.43;81.67
9281;BME280;4679;47.966;7.958;2023-04-02T08:17:01;96797.00;;;8.49;81.93
9281;BME280;4679;47.966;7.958;2023-04-02T08:19:03;96800.22;;;8.51;81.64
9281;BME280;4679;47.966;7.958;2023-04-02T08:21:06;96798.69;;;8.55;81.85
9281;BME280;4679;47.966;7.958;2023-04-02T08:23:12;96805.19;;;8.64;81.63
9281;BME280;4679;47.966;7.958;2023-04-02T08:25:15;96803.19;;;8.71;81.31
9281;BME280;4679;47.966;7.958;2023-04-02T08:27:17;96807.75;;;8.75;81.72
9281;BME280;4679;47.966;7.958;2023-04-02T08:29:19;96811.78;;;8.78;81.34
9281;BME280;4679;47.966;7.958;2023-04-02T08:31:20;96817.97;;;8.84;80.82
9281;BME280;4679;47.966;7.958;2023-04-02T08:33:24;96822.03;;;8.91;81.08
9281;BME280;4679;47.966;7.958;2023-04-02T08:35:25;96822.75;;;9.03;80.97
9281;BME280;4679;47.966;7.958;2023-04-02T08:37:27;96818.94;;;9.11;80.94
9281;BME280;4679;47.966;7.958;2023-04-02T08:39:29;96819.72;;;9.11;80.56
9281;BME280;4679;47.966;7.958;2023-04-02T08:41:35;96825.81;;;9.12;80.76
9281;BME280;4679;47.966;7.958;2023-04-02T08:43:53;96828.84;;;9.21;80.49
9281;BME280;4679;47.966;7.958;2023-04-02T08:46:03;96828.03;;;9.37;80.50
9281;BME280;4679;47.966;7.958;2023-04-02T08:48:09;96823.28;;;9.56;80.12
9281;BME280;4679;47.966;7.958;2023-04-02T08:50:22;96824.78;;;9.68;79.84
9281;BME280;4679;47.966;7.958;2023-04-02T08:52:26;96828.34;;;9.57;79.93
9281;BME280;4679;47.966;7.958;2023-04-02T08:54:30;96828.81;;;9.54;80.01
9281;BME280;4679;47.966;7.958;2023-04-02T08:56:36;96839.09;;;9.50;79.30
9281;BME280;4679;47.966;7.958;2023-04-02T08:58:42;96839.50;;;9.59;79.79
9281;BME280;4679;47.966;7.958;2023-04-02T09:00:46;96842.91;;;9.76;79.68
9281;BME280;4679;47.966;7.958;2023-04-02T09:02:54;96846.72;;;9.85;78.71
9281;BME280;4679;47.966;7.958;2023-04-02T09:04:57;96840.56;;;9.80;78.88
9281;BME280;4679;47.966;7.958;2023-04-02T09:07:02;96846.22;;;9.67;79.11
9281;BME280;4679;47.966;7.958;2023-04-02T09:09:04;96840.59;;;9.63;78.28
9281;BME280;4679;47.966;7.958;2023-04-02T09:11:08;96844.94;;;9.69;78.83
9281;BME280;4679;47.966;7.958;2023-04-02T09:13:21;96849.31;;;9.80;78.18
9281;BME280;4679;47.966;7.958;2023-04-02T09:15:27;96843.44;;;9.78;78.41
9281;BME280;4679;47.966;7.958;2023-04-02T09:17:30;96845.81;;;9.75;78.33
9281;BME280;4679;47.966;7.958;2023-04-02T09:19:35;96851.59;;;9.72;78.16
9281;BME280;4679;47.966;7.958;2023-04-02T09:21:40;96850.59;;;9.78;78.36
9281;BME280;4679;47.966;7.958;2023-04-02T09:23:45;96846.91;;;9.79;77.86
9281;BME280;4679;47.966;7.958;2023-04-02T09:25:49;96851.47;;;9.83;77.36
9281;BME280;4679;47.966;7.958;2023-04-02T09:27:53;96858.56;;;10.00;77.85
9281;BME280;4679;47.966;7.958;2023-04-02T09:29:57;96864.31;;;10.13;77.63
9281;BME280;4679;47.966;7.958;2023-04-02T09:32:11;96856.78;;;10.22;77.21
9281;BME280;4679;47.966;7.958;2023-04-02T09:34:29;96856.13;;;10.15;76.67
9281;BME280;4679;47.966;7.958;2023-04-02T09:36:33;96867.16;;;10.07;77.15
9281;BME280;4679;47.966;7.958;2023-04-02T09:38:35;96870.63;;;10.07;77.17
9281;BME280;4679;47.966;7.958;2023-04-02T09:40:43;96862.38;;;10.09;76.99
9281;BME280;4679;47.966;7.958;2023-04-02T09:42:46;96868.81;;;10.13;76.54
9281;BME280;4679;47.966;7.958;2023-04-02T09:44:48;96863.13;;;10.21;77.36
9281;BME280;4679;47.966;7.958;2023-04-02T09:46:54;96870.63;;;10.29;76.44
9281;BME280;4679;47.966;7.958;2023-04-02T09:49:00;96872.31;;;10.35;75.83
9281;BME280;4679;47.966;7.958;2023-04-02T09:51:11;96875.50;;;10.37;76.13
9281;BME280;4679;47.966;7.958;2023-04-02T09:53:27;96876.97;;;10.28;76.26
9281;BME280;4679;47.966;7.958;2023-04-02T09:55:29;96870.88;;;10.28;76.86
9281;BME280;4679;47.966;7.958;2023-04-02T09:57:32;96877.59;;;10.35;75.50
9281;BME280;4679;47.966;7.958;2023-04-02T09:59:37;96879.50;;;10.40;76.29
9281;BME280;4679;47.966;7.958;2023-04-02T10:01:40;96874.00;;;10.46;75.20
9281;BME280;4679;47.966;7.958;2023-04-02T10:03:42;96879.66;;;10.55;76.03
9281;BME280;4679;47.966;7.958;2023-04-02T10:05:44;96881.34;;;10.61;75.50
9281;BME280;4679;47.966;7.958;2023-04-02T10:07:48;96884.31;;;10.65;75.12
9281;BME280;4679;47.966;7.958;2023-04-02T10:09:56;96887.50;;;10.67;75.10
9281;BME280;4679;47.966;7.958;2023-04-02T10:12:00;96887.75;;;10.65;74.77
9281;BME280;4679;47.966;7.958;2023-04-02T10:14:08;96889.13;;;10.68;75.53
9281;BME280;4679;47.966;7.958;2023-04-02T10:16:16;96890.25;;;10.77;75.59
9281;BME280;4679;47.966;7.958;2023-04-02T10:18:29;96892.72;;;10.83;75.03
9281;BME280;4679;47.966;7.958;2023-04-02T10:20:34;96900.63;;;10.78;75.14
9281;BME280;4679;47.966;7.958;2023-04-02T10:22:39;96897.00;;;10.89;74.82
9281;BME280;4679;47.966;7.958;2023-04-02T10:24:40;96900.03;;;10.98;74.40
9281;BME280;4679;47.966;7.958;2023-04-02T10:26:49;96897.78;;;11.12;74.08
9281;BME280;4679;47.966;7.958;2023-04-02T10:31:32;96904.44;;;11.14;74.35
9281;BME280;4679;47.966;7.958;2023-04-02T10:33:39;96913.91;;;11.05;73.58
9281;BME280;4679;47.966;7.958;2023-04-02T10:35:50;96908.03;;;11.03;73.20
9281;BME280;4679;47.966;7.958;2023-04-02T10:38:14;96915.50;;;11.06;73.96
9281;BME280;4679;47.966;7.958;2023-04-02T10:40:25;96901.25;;;11.17;73.35
9281;BME280;4679;47.966;7.958;2023-04-02T10:42:32;96909.56;;;11.26;73.76
9281;BME280;4679;47.966;7.958;2023-04-02T10:44:43;96914.66;;;11.33;73.04
9281;BME280;4679;47.966;7.958;2023-04-02T10:46:54;96915.72;;;11.32;72.98
9281;BME280;4679;47.966;7.958;2023-04-02T10:49:09;96915.69;;;11.26;72.16
9281;BME280;4679;47.966;7.958;2023-04-02T10:51:27;96923.69;;;11.32;72.89
9281;BME280;4679;47.966;7.958;2023-04-02T10:53:33;96923.50;;;11.38;73.50
9281;BME280;4679;47.966;7.958;2023-04-02T10:55:39;96925.81;;;11.30;73.26
9281;BME280;4679;47.966;7.958;2023-04-02T10:57:43;96921.75;;;11.22;73.42
9281;BME280;4679;47.966;7.958;2023-04-02T10:59:48;96931.88;;;11.25;72.22
9281;BME280;4679;47.966;7.958;2023-04-02T11:01:56;96932.13;;;11.23;72.38
9281;BME280;4679;47.966;7.958;2023-04-02T11:04:04;96931.81;;;11.20;72.37
9281;BME280;4679;47.966;7.958;2023-04-02T11:06:14;96932.63;;;11.20;72.09
9281;BME280;4679;47.966;7.958;2023-04-02T11:08:20;96935.03;;;11.22;72.99
9281;BME280;4679;47.966;7.958;2023-04-02T11:10:25;96936.63;;;11.23;72.04
9281;BME280;4679;47.966;7.958;2023-04-02T11:12:35;96930.03;;;11.25;72.52
9281;BME280;4679;47.966;7.958;2023-04-02T11:14:39;96934.16;;;11.16;72.13
9281;BME280;4679;47.966;7.958;2023-04-02T11:16:42;96935.22;;;11.15;72.41
9281;BME280;4679;47.966;7.958;2023-04-02T11:19:18;96935.03;;;11.22;71.42
9281;BME280;4679;47.966;7.958;2023-04-02T11:21:37;96937.75;;;11.27;72.16
9281;BME280;4679;47.966;7.958;2023-04-02T11:23:55;96944.34;;;11.24;72.19
9281;BME280;4679;47.966;7.958;2023-04-02T11:26:27;96937.94;;;11.20;72.03
9281;BME280;4679;47.966;7.958;2023-04-02T11:28:30;96937.94;;;11.20;71.79
9281;BME280;4679;47.966;7.958;2023-04-02T11:30:33;96945.91;;;11.20;71.60
9281;BME280;4679;47.966;7.958;2023-04-02T11:32:37;96944.78;;;11.16;72.12
9281;BME280;4679;47.966;7.958;2023-04-02T11:37:33;96950.00;;;11.33;71.28
9281;BME280;4679;47.966;7.958;2023-04-02T11:39:49;96960.34;;;11.30;71.17
9281;BME280;4679;47.966;7.958;2023-04-02T11:42:03;96957.38;;;11.26;71.85
9281;BME280;4679;47.966;7.958;2023-04-02T11:44:21;96957.69;;;11.30;72.22
9281;BME280;4679;47.966;7.958;2023-04-02T11:46:39;96966.19;;;11.32;72.47
9281;BME280;4679;47.966;7.958;2023-04-02T11:48:42;96963.84;;;11.35;71.91
9281;BME280;4679;47.966;7.958;2023-04-02T11:50:44;96973.66;;;11.35;72.30
9281;BME280;4679;47.966;7.958;2023-04-02T11:52:51;96966.25;;;11.37;71.98
9281;BME280;4679;47.966;7.958;2023-04-02T11:55:03;96971.00;;;11.35;71.96
9281;BME280;4679;47.966;7.958;2023-04-02T11:57:13;96976.31;;;11.35;72.86
9281;BME280;4679;47.966;7.958;2023-04-02T11:59:22;96973.09;;;11.33;73.07
9281;BME280;4679;47.966;7.958;2023-04-02T12:01:44;96976.56;;;11.33;72.03
9281;BME280;4679;47.966;7.958;2023-04-02T12:04:13;96973.81;;;11.23;72.88
9281;BME280;4679;47.966;7.958;2023-04-02T12:06:26;96971.91;;;11.18;73.60
9281;BME280;4679;47.966;7.958;2023-04-02T12:08:41;96977.28;;;11.23;73.19
9281;BME280;4679;47.966;7.958;2023-04-02T12:10:51;96971.97;;;11.23;73.16
9281;BME280;4679;47.966;7.958;2023-04-02T12:12:54;96971.97;;;11.23;73.50
9281;BME280;4679;47.966;7.958;2023-04-02T12:14:57;96976.22;;;11.24;73.74
9281;BME280;4679;47.966;7.958;2023-04-02T12:16:59;96975.16;;;11.25;73.26
9281;BME280;4679;47.966;7.958;2023-04-02T12:19:07;96976.78;;;11.26;74.00
9281;BME280;4679;47.966;7.958;2023-04-02T12:21:14;96988.47;;;11.31;73.64
9281;BME280;4679;47.966;7.958;2023-04-02T12:23:18;96975.72;;;11.27;73.72
9281;BME280;4679;47.966;7.958;2023-04-02T12:25:26;96978.63;;;11.26;73.95
9281;BME280;4679;47.966;7.958;2023-04-02T12:27:31;96983.38;;;11.24;73.85
9281;BME280;4679;47.966;7.958;2023-04-02T12:29:37;96988.44;;;11.25;74.17
9281;BME280;4679;47.966;7.958;2023-04-02T12:31:41;96985.19;;;11.18;73.84
9281;BME280;4679;47.966;7.958;2023-04-02T12:33:44;96988.34;;;11.15;74.44
9281;BME280;4679;47.966;7.958;2023-04-02T12:35:47;96990.41;;;11.08;73.81
9281;BME280;4679;47.966;7.958;2023-04-02T12:37:51;96985.56;;;11.05;73.99
9281;BME280;4679;47.966;7.958;2023-04-02T12:39:57;97002.00;;;11.02;74.96
9281;BME280;4679;47.966;7.958;2023-04-02T12:42:00;97000.59;;;10.95;74.70
9281;BME280;4679;47.966;7.958;2023-04-02T12:44:03;97001.59;;;10.88;74.65
9281;BME280;4679;47.966;7.958;2023-04-02T12:46:07;96999.50;;;10.90;75.64
9281;BME280;4679;47.966;7.958;2023-04-02T12:48:09;97006.72;;;10.95;75.46
9281;BME280;4679;47.966;7.958;2023-04-02T12:50:14;97004.56;;;10.92;75.11
9281;BME280;4679;47.966;7.958;2023-04-02T12:52:18;97008.25;;;10.91;75.55
9281;BME280;4679;47.966;7.958;2023-04-02T12:54:20;97009.88;;;10.92;76.08
9281;BME280;4679;47.966;7.958;2023-04-02T12:56:23;97004.56;;;10.92;75.82
9281;BME280;4679;47.966;7.958;2023-04-02T12:58:31;97010.91;;;10.91;75.27
9281;BME280;4679;47.966;7.958;2023-04-02T13:00:35;97007.13;;;10.87;75.63
9281;BME280;4679;47.966;7.958;2023-04-02T13:02:42;97006.84;;;10.83;76.41
9281;BME280;4679;47.966;7.958;2023-04-02T13:04:48;97009.44;;;10.78;75.65
9281;BME280;4679;47.966;7.958;2023-04-02T13:06:51;97008.56;;;10.73;76.27
9281;BME280;4679;47.966;7.958;2023-04-02T13:08:54;97006.34;;;10.65;76.14
9281;BME280;4679;47.966;7.958;2023-04-02T13:10:58;97020.59;;;10.58;76.38
9281;BME280;4679;47.966;7.958;2023-04-02T13:13:01;97017.13;;;10.58;77.04
9281;BME280;4679;47.966;7.958;2023-04-02T13:15:07;97022.44;;;10.58;77.34
9281;BME280;4679;47.966;7.958;2023-04-02T13:17:37;97032.69;;;10.49;76.25
9281;BME280;4679;47.966;7.958;2023-04-02T13:19:39;97032.38;;;10.46;77.53
9281;BME280;4679;47.966;7.958;2023-04-02T13:21:41;97028.19;;;10.50;77.52
9281;BME280;4679;47.966;7.958;2023-04-02T13:23:43;97032.38;;;10.46;77.64
9281;BME280;4679;47.966;7.958;2023-04-02T13:25:45;97036.53;;;10.42;77.79
9281;BME280;4679;47.966;7.958;2023-04-02T13:27:47;97040.44;;;10.34;77.26
9281;BME280;4679;47.966;7.958;2023-04-02T13:29:49;97041.22;;;10.35;78.06
9281;BME280;4679;47.966;7.958;2023-04-02T13:31:54;97037.53;;;10.36;77.88
9281;BME280;4679;47.966;7.958;2023-04-02T13:33:57;97043.00;;;10.29;77.44
9281;BME280;4679;47.966;7.958;2023-04-02T13:35:58;97035.47;;;10.21;77.88
9281;BME280;4679;47.966;7.958;2023-04-02T13:38:00;97039.63;;;10.17;77.39
9281;BME280;4679;47.966;7.958;2023-04-02T13:40:04;97047.25;;;10.13;77.88
9281;BME280;4679;47.966;7.958;2023-04-02T13:42:06;97038.97;;;10.10;78.06
9281;BME280;4679;47.966;7.958;2023-04-02T13:44:17;97042.41;;;10.10;77.83
9281;BME280;4679;47.966;7.958;2023-04-02T13:46:21;97051.97;;;10.11;78.57
9281;BME280;4679;47.966;7.958;2023-04-02T13:48:24;97056.97;;;10.08;77.65
9281;BME280;4679;47.966;7.958;2023-04-02T13:50:32;97056.91;;;10.03;77.90
9281;BME280;4679;47.966;7.958;2023-04-02T13:52:34;97068.19;;;9.81;78.49
9281;BME280;4679;47.966;7.958;2023-04-02T13:54:45;97063.22;;;9.68;78.20
9281;BME280;4679;47.966;7.958;2023-04-02T13:56:48;97067.81;;;9.73;78.61
9281;BME280;4679;47.966;7.958;2023-04-02T13:58:50;97066.75;;;9.74;78.60
9281;BME280;4679;47.966;7.958;2023-04-02T14:00:52;97075.81;;;9.78;78.08
9281;BME280;4679;47.966;7.958;2023-04-02T14:02:57;97069.16;;;9.75;78.13
9281;BME280;4679;47.966;7.958;2023-04-02T14:05:13;97075.41;;;9.69;78.30
9281;BME280;4679;47.966;7.958;2023-04-02T14:07:27;97080.94;;;9.68;78.59
9281;BME280;4679;47.966;7.958;2023-04-02T14:09:39;97086.47;;;9.66;79.17
9281;BME280;4679;47.966;7.958;2023-04-02T14:11:48;97084.06;;;9.65;79.07
9281;BME280;4679;47.966;7.958;2023-04-02T14:14:11;97096.44;;;9.59;79.17
9281;BME280;4679;47.966;7.958;2023-04-02T14:16:25;97094.81;;;9.58;78.54
9281;BME280;4679;47.966;7.958;2023-04-02T14:18:41;97089.53;;;9.58;78.84
9281;BME280;4679;47.966;7.958;2023-04-02T14:20:53;97092.91;;;9.70;78.68
9281;BME280;4679;47.966;7.958;2023-04-02T14:23:12;97094.53;;;9.71;79.21
9281;BME280;4679;47.966;7.958;2023-04-02T14:25:25;97090.28;;;9.70;79.05
9281;BME280;4679;47.966;7.958;2023-04-02T14:27:37;97092.53;;;9.78;78.93
9281;BME280;4679;47.966;7.958;2023-04-02T14:29:45;97096.78;;;9.79;79.07
9281;BME280;4679;47.966;7.958;2023-04-02T14:31:53;97101.38;;;9.84;78.84
9281;BME280;4679;47.966;7.958;2023-04-02T14:34:02;97116.94;;;9.80;78.67
9281;BME280;4679;47.966;7.958;2023-04-02T14:36:14;97113.72;;;9.78;79.43
9281;BME280;4679;47.966;7.958;2023-04-02T14:38:21;97112.03;;;9.72;79.53
9281;BME280;4679;47.966;7.958;2023-04-02T14:40:28;97116.75;;;9.70;79.31
9281;BME280;4679;47.966;7.958;2023-04-02T14:42:35;97122.63;;;9.72;79.79
9281;BME280;4679;47.966;7.958;2023-04-02T14:44:43;97118.13;;;9.73;79.61
9281;BME280;4679;47.966;7.958;2023-04-02T14:46:46;97120.44;;;9.69;79.41
9281;BME280;4679;47.966;7.958;2023-04-02T14:48:51;97123.56;;;9.66;80.13
9281;BME280;4679;47.966;7.958;2023-04-02T14:50:57;97131.53;;;9.66;79.68
9281;BME280;4679;47.966;7.958;2023-04-02T14:53:06;97133.84;;;9.63;79.84
9281;BME280;4679;47.966;7.958;2023-04-02T14:55:12;97137.22;;;9.58;80.23
9281;BME280;4679;47.966;7.958;2023-04-02T14:57:18;97144.59;;;9.56;79.77
9281;BME280;4679;47.966;7.958;2023-04-02T14:59:28;97135.72;;;9.62;79.83
9281;BME280;4679;47.966;7.958;2023-04-02T15:01:34;97140.75;;;9.64;79.90
9281;BME280;4679;47.966;7.958;2023-04-02T15:03:41;97139.13;;;9.63;79.83
9281;BME280;4679;47.966;7.958;2023-04-02T15:05:47;97143.38;;;9.64;80.25
9281;BME280;4679;47.966;7.958;2023-04-02T15:07:51;97147.97;;;9.68;80.28
9281;BME280;4679;47.966;7.958;2023-04-02T15:10:03;97148.78;;;9.69;79.79
9281;BME280;4679;47.966;7.958;2023-04-02T15:12:08;97149.13;;;9.72;79.73
9281;BME280;4679;47.966;7.958;2023-04-02T15:14:18;97147.53;;;9.71;79.43
9281;BME280;4679;47.966;7.958;2023-04-02T15:16:23;97152.13;;;9.64;80.42
9281;BME280;4679;47.966;7.958;2023-04-02T15:18:25;97150.91;;;9.55;80.00
9281;BME280;4679;47.966;7.958;2023-04-02T15:20:37;97158.88;;;9.55;80.19
9281;BME280;4679;47.966;7.958;2023-04-02T15:22:44;97153.09;;;9.58;80.31
9281;BME280;4679;47.966;7.958;2023-04-02T15:25:01;97153.56;;;9.55;80.62
9281;BME280;4679;47.966;7.958;2023-04-02T15:27:13;97160.94;;;9.53;80.02
9281;BME280;4679;47.966;7.958;2023-04-02T15:29:24;97159.25;;;9.47;80.68
9281;BME280;4679;47.966;7.958;2023-04-02T15:31:28;97153.63;;;9.43;80.47
9281;BME280;4679;47.966;7.958;2023-04-02T15:33:39;97153.84;;;9.42;79.90
9281;BME280;4679;47.966;7.958;2023-04-02T15:35:46;97160.94;;;9.53;80.77
9281;BME280;4679;47.966;7.958;2023-04-02T15:37:57;97158.41;;;9.58;80.34
9281;BME280;4679;47.966;7.958;2023-04-02T15:40:14;97160.09;;;9.64;80.68
9281;BME280;4679;47.966;7.958;2023-04-02T15:42:21;97159.97;;;9.71;80.18
9281;BME280;4679;47.966;7.958;2023-04-02T15:44:24;97159.97;;;9.71;80.81
9281;BME280;4679;47.966;7.958;2023-04-02T15:46:30;97158.00;;;9.66;80.90
9281;BME280;4679;47.966;7.958;2023-04-02T15:48:59;97164.28;;;9.60;80.53
9281;BME280;4679;47.966;7.958;2023-04-02T15:51:14;97158.97;;;9.60;80.30
9281;BME280;4679;47.966;7.958;2023-04-02T15:53:32;97164.28;;;9.60;81.18
9281;BME280;4679;47.966;7.958;2023-04-02T15:55:40;97168.03;;;9.64;81.27
9281;BME280;4679;47.966;7.958;2023-04-02T15:57:55;97167.56;;;9.67;81.14
9281;BME280;4679;47.966;7.958;2023-04-02T16:00:18;97176.56;;;9.66;80.58
9281;BME280;4679;47.966;7.958;2023-04-02T16:02:35;97170.16;;;9.62;81.35
9281;BME280;4679;47.966;7.958;2023-04-02T16:04:44;97170.22;;;9.67;81.23
9281;BME280;4679;47.966;7.958;2023-04-02T16:07:00;97173.53;;;9.74;81.25
9281;BME280;4679;47.966;7.958;2023-04-02T16:09:21;97180.22;;;9.77;81.33
9281;BME280;4679;47.966;7.958;2023-04-02T16:11:27;97180.13;;;9.72;80.65
9281;BME280;4679;47.966;7.958;2023-04-02T16:13:31;97175.84;;;9.71;81.46
9281;BME280;4679;47.966;7.958;2023-04-02T16:15:36;97180.34;;;9.70;81.26
9281;BME280;4679;47.966;7.958;2023-04-02T16:17:42;97186.47;;;9.71;81.42
9281;BME280;4679;47.966;7.958;2023-04-02T16:19:48;97186.34;;;9.66;81.26
9281;BME280;4679;47.966;7.958;2023-04-02T16:21:57;97192.91;;;9.63;81.40
9281;BME280;4679;47.966;7.958;2023-04-02T16:24:01;97188.69;;;9.62;81.86
9281;BME280;4679;47.966;7.958;2023-04-02T16:26:22;97192.59;;;9.60;81.80
9281;BME280;4679;47.966;7.958;2023-04-02T16:28:30;97194.69;;;9.58;81.85
9281;BME280;4679;47.966;7.958;2023-04-02T16:30:46;97193.41;;;9.60;81.58
9281;BME280;4679;47.966;7.958;2023-04-02T16:32:58;97193.19;;;9.62;81.78
9281;BME280;4679;47.966;7.958;2023-04-02T16:35:11;97197.66;;;9.61;81.25
9281;BME280;4679;47.966;7.958;2023-04-02T16:37:22;97198.78;;;9.65;81.35
9281;BME280;4679;47.966;7.958;2023-04-02T16:39:33;97207.31;;;9.67;81.24
9281;BME280;4679;47.966;7.958;2023-04-02T16:41:47;97201.53;;;9.70;81.77
9281;BME280;4679;47.966;7.958;2023-04-02T16:43:59;97207.88;;;9.69;81.38
9281;BME280;4679;47.966;7.958;2023-04-02T16:46:09;97203.84;;;9.67;81.37
9281;BME280;4679;47.966;7.958;2023-04-02T16:48:17;97213.19;;;9.69;81.45
9281;BME280;4679;47.966;7.958;2023-04-02T16:50:31;97211.09;;;9.71;82.11
9281;BME280;4679;47.966;7.958;2023-04-02T16:52:41;97210.88;;;9.73;81.63
9281;BME280;4679;47.966;7.958;2023-04-02T16:54:56;97218.03;;;9.72;81.83
9281;BME280;4679;47.966;7.958;2023-04-02T16:57:17;97224.94;;;9.73;81.68
9281;BME280;4679;47.966;7.958;2023-04-02T16:59:28;97223.53;;;9.71;81.77
9281;BME280;4679;47.966;7.958;2023-04-02T17:01:40;97229.31;;;9.68;81.65
9281;BME280;4679;47.966;7.958;2023-04-02T17:04:08;97236.03;;;9.59;81.94
9281;BME280;4679;47.966;7.958;2023-04-02T17:06:19;97231.56;;;9.36;82.54
9281;BME280;4679;47.966;7.958;2023-04-02T17:08:27;97231.13;;;9.27;82.32
9281;BME280;4679;47.966;7.958;2023-04-02T17:10:32;97228.03;;;9.30;82.67
9281;BME280;4679;47.966;7.958;2023-04-02T17:12:43;97231.78;;;9.34;82.31
9281;BME280;4679;47.966;7.958;2023-04-02T17:14:50;97227.31;;;9.35;82.41
9281;BME280;4679;47.966;7.958;2023-04-02T17:16:55;97233.09;;;9.32;82.87
9281;BME280;4679;47.966;7.958;2023-04-02T17:18:59;97235.47;;;9.33;82.86
9281;BME280;4679;47.966;7.958;2023-04-02T17:21:04;97244.22;;;9.34;82.98
9281;BME280;4679;47.966;7.958;2023-04-02T17:23:09;97242.38;;;9.34;82.82
9281;BME280;4679;47.966;7.958;2023-04-02T17:25:16;97247.69;;;9.34;83.17
9281;BME280;4679;47.966;7.958;2023-04-02T17:27:24;97248.97;;;9.32;82.30
9281;BME280;4679;47.966;7.958;2023-04-02T17:29:31;97253.00;;;9.23;83.07
9281;BME280;4679;47.966;7.958;2023-04-02T17:31:37;97253.22;;;9.09;82.79
9281;BME280;4679;47.966;7.958;2023-04-02T17:33:41;97261.41;;;9.08;83.23
9281;BME280;4679;47.966;7.958;2023-04-02T17:35:50;97268.53;;;9.07;83.17
9281;BME280;4679;47.966;7.958;2023-04-02T17:38:03;97267.38;;;9.03;83.44
9281;BME280;4679;47.966;7.958;2023-04-02T17:40:19;97270.03;;;8.92;84.08
9281;BME280;4679;47.966;7.958;2023-04-02T17:42:33;97276.78;;;8.88;83.82
9281;BME280;4679;47.966;7.958;2023-04-02T17:44:45;97281.75;;;8.84;83.43
9281;BME280;4679;47.966;7.958;2023-04-02T17:46:58;97280.81;;;8.78;84.02
9281;BME280;4679;47.966;7.958;2023-04-02T17:49:09;97281.94;;;8.71;84.13
9281;BME280;4679;47.966;7.958;2023-04-02T17:51:16;97297.25;;;8.69;84.15
9281;BME280;4679;47.966;7.958;2023-04-02T17:53:30;97291.16;;;8.68;84.25
9281;BME280;4679;47.966;7.958;2023-04-02T17:55:43;97292.41;;;8.66;83.93
9281;BME280;4679;47.966;7.958;2023-04-02T17:57:57;97303.44;;;8.63;84.21
9281;BME280;4679;47.966;7.958;2023-04-02T18:00:13;97299.78;;;8.64;84.49
9281;BME280;4679;47.966;7.958;2023-04-02T18:02:37;97303.44;;;8.63;84.68
9281;BME280;4679;47.966;7.958;2023-04-02T18:04:48;97304.25;;;8.63;84.80
9281;BME280;4679;47.966;7.958;2023-04-02T18:07:02;97307.34;;;8.60;84.42